createdAt,value
2019-04-28T00:01:03.866Z,12.00
2019-04-28T00:03:07.525Z,11.90
2019-04-28T00:05:11.416Z,11.60
2019-04-28T00:07:15.136Z,11.60
2019-04-28T00:09:19.081Z,11.30
2019-04-28T00:11:22.790Z,11.30
2019-04-28T00:13:26.546Z,11.40
2019-04-28T00:15:30.869Z,11.30
2019-04-28T00:17:34.785Z,11.30
2019-04-28T00:19:38.447Z,11.50
2019-04-28T00:21:46.162Z,11.50
2019-04-28T00:24:07.584Z,11.50
2019-04-28T00:26:30.998Z,11.50
2019-04-28T00:28:34.475Z,11.50
2019-04-28T00:30:38.133Z,11.50
2019-04-28T00:32:41.864Z,11.60
2019-04-28T00:34:45.653Z,12.00
2019-04-28T00:36:51.278Z,11.50
2019-04-28T00:38:54.978Z,11.40
2019-04-28T00:40:58.630Z,11.40
2019-04-28T00:43:02.326Z,11.50
2019-04-28T00:45:09.304Z,11.50
2019-04-28T00:47:13.015Z,11.70
2019-04-28T00:49:18.243Z,11.50
2019-04-28T00:51:21.907Z,11.50
2019-04-28T00:53:25.601Z,11.20
2019-04-28T00:55:29.263Z,11.10
2019-04-28T00:57:33.025Z,10.90
2019-04-28T00:59:36.812Z,11.00
2019-04-28T01:01:48.041Z,11.20
2019-04-28T01:03:52.035Z,11.20
2019-04-28T01:05:55.770Z,11.20
2019-04-28T01:08:00.992Z,11.40
2019-04-28T01:10:05.698Z,11.30
2019-04-28T01:12:11.089Z,11.40
2019-04-28T01:14:15.027Z,11.40
2019-04-28T01:16:35.319Z,11.70
2019-04-28T01:18:43.024Z,11.50
2019-04-28T01:20:46.762Z,11.60
2019-04-28T01:22:50.522Z,11.60
2019-04-28T01:24:54.188Z,11.20
2019-04-28T01:26:57.942Z,10.90
2019-04-28T01:29:01.662Z,10.90
2019-04-28T01:31:09.623Z,10.60
2019-04-28T01:33:14.995Z,10.60
2019-04-28T01:35:20.854Z,10.50
2019-04-28T01:37:24.032Z,10.50
2019-04-28T01:39:29.602Z,10.40
2019-04-28T01:41:33.102Z,10.30
2019-04-28T01:43:36.815Z,10.70
2019-04-28T01:45:41.633Z,10.70
2019-04-28T01:47:45.391Z,10.90
2019-04-28T01:49:50.130Z,11.10
2019-04-28T01:51:57.255Z,11.20
2019-04-28T01:54:01.095Z,11.40
2019-04-28T01:56:04.854Z,11.60
2019-04-28T01:58:09.580Z,11.70
2019-04-28T02:00:22.995Z,11.20
2019-04-28T02:02:20.833Z,10.70
2019-04-28T02:04:24.531Z,10.60
2019-04-28T02:06:29.851Z,10.20
2019-04-28T02:08:33.791Z,10.30
2019-04-28T02:10:37.477Z,10.70
2019-04-28T02:12:41.142Z,11.00
2019-04-28T02:14:44.850Z,11.10
2019-04-28T02:16:50.307Z,11.30
2019-04-28T02:18:54.227Z,10.90
2019-04-28T02:20:59.661Z,11.20
2019-04-28T02:23:07.407Z,11.20
2019-04-28T02:25:12.166Z,11.30
2019-04-28T02:27:15.830Z,11.20
2019-04-28T02:29:20.150Z,11.20
2019-04-28T02:31:24.445Z,11.00
2019-04-28T02:33:28.155Z,10.60
2019-04-28T02:35:34.269Z,10.70
2019-04-28T02:37:37.427Z,10.60
2019-04-28T02:39:41.417Z,10.50
2019-04-28T02:41:45.321Z,10.50
2019-04-28T02:43:50.971Z,10.50
2019-04-28T02:45:54.529Z,10.70
2019-04-28T02:48:01.004Z,10.80
2019-04-28T02:50:11.165Z,10.80
2019-04-28T02:52:20.687Z,10.90
2019-04-28T02:54:23.897Z,10.80
2019-04-28T02:56:27.571Z,10.60
2019-04-28T02:58:31.437Z,10.60
2019-04-28T03:00:35.195Z,10.40
2019-04-28T03:02:41.390Z,10.20
2019-04-28T03:04:44.358Z,10.00
2019-04-28T03:06:48.030Z,10.20
2019-04-28T03:08:51.667Z,9.80
2019-04-28T03:10:55.575Z,9.60
2019-04-28T03:13:01.075Z,9.80
2019-04-28T03:15:06.618Z,9.80
2019-04-28T03:17:10.952Z,9.90
2019-04-28T03:19:14.829Z,10.00
2019-04-28T03:21:21.188Z,10.00
2019-04-28T03:23:24.013Z,10.20
2019-04-28T03:25:30.619Z,10.20
2019-04-28T03:27:40.516Z,10.00
2019-04-28T03:29:50.417Z,10.10
2019-04-28T03:32:16.042Z,9.90
2019-04-28T03:34:04.151Z,9.60
2019-04-28T03:36:08.749Z,9.70
2019-04-28T03:38:11.831Z,9.90
2019-04-28T03:40:15.483Z,9.80
2019-04-28T03:42:21.695Z,9.90
2019-04-28T03:44:24.960Z,10.00
2019-04-28T03:46:30.602Z,10.20
2019-04-28T03:48:34.366Z,10.10
2019-04-28T03:50:38.121Z,10.10
2019-04-28T03:52:41.826Z,10.20
2019-04-28T03:54:47.105Z,10.30
2019-04-28T03:56:53.707Z,10.40
2019-04-28T03:58:56.239Z,10.50
2019-04-28T04:01:02.775Z,10.10
2019-04-28T04:03:05.423Z,10.50
2019-04-28T04:05:11.137Z,10.40
2019-04-28T04:07:14.696Z,10.60
2019-04-28T04:09:21.579Z,10.70
2019-04-28T04:11:25.568Z,10.80
2019-04-28T04:13:41.592Z,10.90
2019-04-28T04:15:49.655Z,10.90
2019-04-28T04:18:05.609Z,10.90
2019-04-28T04:20:11.073Z,10.80
2019-04-28T04:22:14.843Z,10.70
2019-04-28T04:24:20.557Z,10.50
2019-04-28T04:26:24.047Z,10.60
2019-04-28T04:28:30.230Z,10.70
2019-04-28T04:30:33.676Z,10.50
2019-04-28T04:32:37.455Z,10.20
2019-04-28T04:34:41.213Z,10.20
2019-04-28T04:36:44.874Z,10.20
2019-04-28T04:38:50.959Z,10.10
2019-04-28T04:40:53.979Z,10.00
2019-04-28T04:42:57.748Z,9.60
2019-04-28T04:45:01.439Z,10.00
2019-04-28T04:47:05.096Z,10.00
2019-04-28T04:49:10.697Z,10.30
2019-04-28T04:51:14.602Z,10.20
2019-04-28T04:53:20.743Z,10.30
2019-04-28T04:55:23.871Z,10.40
2019-04-28T04:57:27.531Z,10.40
2019-04-28T04:59:33.035Z,10.40
2019-04-28T05:01:43.706Z,10.40
2019-04-28T05:03:49.750Z,10.60
2019-04-28T05:05:53.518Z,10.80
2019-04-28T05:07:57.228Z,11.00
2019-04-28T05:10:00.947Z,11.00
2019-04-28T05:12:04.596Z,10.80
2019-04-28T05:14:11.662Z,10.80
2019-04-28T05:16:13.889Z,10.70
2019-04-28T05:18:17.547Z,10.70
2019-04-28T05:20:21.282Z,10.60
2019-04-28T05:22:26.786Z,10.70
2019-04-28T05:24:40.855Z,10.80
2019-04-28T05:26:47.876Z,10.80
2019-04-28T05:28:53.346Z,10.70
2019-04-28T05:30:57.151Z,10.60
2019-04-28T05:33:00.808Z,10.60
2019-04-28T05:35:05.597Z,10.60
2019-04-28T05:37:10.804Z,10.60
2019-04-28T05:39:14.595Z,10.70
2019-04-28T05:41:19.615Z,10.90
2019-04-28T05:43:23.418Z,11.00
2019-04-28T05:45:32.146Z,11.10
2019-04-28T05:47:35.817Z,11.20
2019-04-28T05:49:41.049Z,10.60
2019-04-28T05:51:46.298Z,10.50
2019-04-28T05:53:54.378Z,10.80
2019-04-28T05:56:00.118Z,11.10
2019-04-28T05:58:11.475Z,11.00
2019-04-28T06:00:16.755Z,11.10
2019-04-28T06:02:22.079Z,10.80
2019-04-28T06:04:27.013Z,10.60
2019-04-28T06:06:32.273Z,10.90
2019-04-28T06:08:51.029Z,10.90
2019-04-28T06:10:54.882Z,10.80
2019-04-28T06:12:59.731Z,10.90
2019-04-28T06:15:05.190Z,11.10
2019-04-28T06:17:10.711Z,10.80
2019-04-28T06:19:14.273Z,10.70
2019-04-28T06:21:18.146Z,11.00
2019-04-28T06:23:21.808Z,11.20
2019-04-28T06:25:25.457Z,11.50
2019-04-28T06:27:29.255Z,11.60
2019-04-28T06:29:32.929Z,11.80
2019-04-28T06:31:36.826Z,11.80
2019-04-28T06:33:40.504Z,12.00
2019-04-28T06:35:44.176Z,12.20
2019-04-28T06:37:47.871Z,12.30
2019-04-28T06:39:51.543Z,12.40
2019-04-28T06:41:55.242Z,12.70
2019-04-28T06:43:58.911Z,13.00
2019-04-28T06:46:02.613Z,13.10
2019-04-28T06:48:06.294Z,13.20
2019-04-28T06:50:10.075Z,13.10
2019-04-28T06:52:13.773Z,13.20
2019-04-28T06:54:17.474Z,13.50
2019-04-28T06:56:21.175Z,13.20
2019-04-28T06:58:24.830Z,13.30
2019-04-28T07:00:28.488Z,12.00
2019-04-28T07:02:32.180Z,10.60
2019-04-28T07:04:35.830Z,10.60
2019-04-28T07:06:39.523Z,10.60
2019-04-28T07:08:43.229Z,10.00
2019-04-28T07:10:46.978Z,10.40
2019-04-28T07:12:50.785Z,11.10
2019-04-28T07:14:54.438Z,11.30
2019-04-28T07:16:59.201Z,11.40
2019-04-28T07:19:02.892Z,11.70
2019-04-28T07:21:23.391Z,11.60
2019-04-28T07:23:27.287Z,11.30
2019-04-28T07:25:31.025Z,10.80
2019-04-28T07:27:34.718Z,10.60
2019-04-28T07:29:38.399Z,10.80
2019-04-28T07:31:42.066Z,10.50
2019-04-28T07:33:45.750Z,10.30
2019-04-28T07:35:49.438Z,10.90
2019-04-28T07:37:53.136Z,11.00
2019-04-28T07:39:56.940Z,11.50
2019-04-28T07:42:00.675Z,11.50
2019-04-28T07:44:04.394Z,10.70
2019-04-28T07:46:08.160Z,11.00
2019-04-28T07:48:11.950Z,11.10
2019-04-28T07:50:15.620Z,11.00
2019-04-28T07:52:20.988Z,10.50
2019-04-28T07:54:24.677Z,10.20
2019-04-28T07:56:28.430Z,9.90
2019-04-28T07:58:32.125Z,10.10
2019-04-28T08:00:35.950Z,10.30
2019-04-28T08:02:39.614Z,10.70
2019-04-28T08:04:43.290Z,10.70
2019-04-28T08:06:47.065Z,10.80
2019-04-28T08:08:50.783Z,10.10
2019-04-28T08:10:54.450Z,9.40
2019-04-28T08:12:58.103Z,9.20
2019-04-28T08:15:01.795Z,9.30
2019-04-28T08:17:05.441Z,9.90
2019-04-28T08:19:09.136Z,10.10
2019-04-28T08:21:12.978Z,10.30
2019-04-28T08:23:16.642Z,10.70
2019-04-28T08:25:20.457Z,10.50
2019-04-28T08:27:24.151Z,10.20
2019-04-28T08:29:27.860Z,10.10
2019-04-28T08:31:48.172Z,9.90
2019-04-28T08:34:02.241Z,9.40
2019-04-28T08:35:58.997Z,9.80
2019-04-28T08:38:02.661Z,10.80
2019-04-28T08:40:06.353Z,11.50
2019-04-28T08:42:10.116Z,12.00
2019-04-28T08:44:13.829Z,11.90
2019-04-28T08:46:17.623Z,11.80
2019-04-28T08:48:21.362Z,10.60
2019-04-28T08:50:25.076Z,11.00
2019-04-28T08:52:28.732Z,11.30
2019-04-28T08:54:32.397Z,10.90
2019-04-28T08:56:36.101Z,10.70
2019-04-28T08:58:39.774Z,10.70
2019-04-28T09:00:43.686Z,11.40
2019-04-28T09:02:47.349Z,11.70
2019-04-28T09:04:51.018Z,11.50
2019-04-28T09:06:54.717Z,11.90
2019-04-28T09:08:58.365Z,12.10
2019-04-28T09:11:02.042Z,12.30
2019-04-28T09:13:05.705Z,13.20
2019-04-28T09:15:09.558Z,13.50
2019-04-28T09:17:13.239Z,13.20
2019-04-28T09:19:16.929Z,13.20
2019-04-28T09:21:20.613Z,12.70
2019-04-28T09:23:24.322Z,12.40
2019-04-28T09:25:28.082Z,12.20
2019-04-28T09:27:31.770Z,12.60
2019-04-28T09:29:35.670Z,12.80
2019-04-28T09:31:41.554Z,12.60
2019-04-28T09:33:47.410Z,12.70
2019-04-28T09:35:51.899Z,13.00
2019-04-28T09:37:56.849Z,13.30
2019-04-28T09:40:03.441Z,13.00
2019-04-28T09:42:25.483Z,13.30
2019-04-28T09:44:29.154Z,13.70
2019-04-28T09:46:34.408Z,14.30
2019-04-28T09:48:38.078Z,14.40
2019-04-28T09:50:41.754Z,13.00
2019-04-28T09:52:48.491Z,12.90
2019-04-28T09:54:50.871Z,13.00
2019-04-28T09:56:56.862Z,12.40
2019-04-28T09:59:00.019Z,12.80
2019-04-28T10:01:03.782Z,13.30
2019-04-28T10:03:07.610Z,13.00
2019-04-28T10:05:11.291Z,13.30
2019-04-28T10:07:15.038Z,13.50
2019-04-28T10:09:18.741Z,13.50
2019-04-28T10:11:30.357Z,13.80
2019-04-28T10:13:27.817Z,13.90
2019-04-28T10:15:31.510Z,13.60
2019-04-28T10:17:35.173Z,13.80
2019-04-28T10:19:38.868Z,14.10
2019-04-28T10:21:42.551Z,14.50
2019-04-28T10:23:46.247Z,14.00
2019-04-28T10:25:49.909Z,13.10
2019-04-28T10:27:53.853Z,13.30
2019-04-28T10:29:57.579Z,13.50
2019-04-28T10:32:01.300Z,13.50
2019-04-28T10:34:05.383Z,13.40
2019-04-28T10:36:09.207Z,12.70
2019-04-28T10:38:13.021Z,13.20
2019-04-28T10:40:36.225Z,12.90
2019-04-28T10:42:40.495Z,13.20
2019-04-28T10:44:45.771Z,13.40
2019-04-28T10:46:49.432Z,14.10
2019-04-28T10:48:53.268Z,14.50
2019-04-28T10:50:56.918Z,14.40
2019-04-28T10:53:00.573Z,14.90
2019-04-28T10:55:05.296Z,14.50
2019-04-28T10:57:08.965Z,13.20
2019-04-28T10:59:12.655Z,11.70
2019-04-28T11:01:16.337Z,11.70
2019-04-28T11:03:20.130Z,11.50
2019-04-28T11:05:31.310Z,11.50
2019-04-28T11:07:35.044Z,11.20
2019-04-28T11:09:49.058Z,11.60
2019-04-28T11:11:54.181Z,11.50
2019-04-28T11:13:58.175Z,11.10
2019-04-28T11:16:01.850Z,10.60
2019-04-28T11:18:07.683Z,9.90
2019-04-28T11:20:11.663Z,10.10
2019-04-28T11:22:15.739Z,10.60
2019-04-28T11:24:19.891Z,10.80
2019-04-28T11:26:23.568Z,11.00
2019-04-28T11:28:27.286Z,10.90
2019-04-28T11:30:31.234Z,11.40
2019-04-28T11:32:34.919Z,11.60
2019-04-28T11:34:40.259Z,11.20
2019-04-28T11:36:44.059Z,11.00
2019-04-28T11:38:47.707Z,11.20
2019-04-28T11:40:51.478Z,11.40
2019-04-28T11:42:55.356Z,12.00
2019-04-28T11:44:59.133Z,12.30
2019-04-28T11:47:03.780Z,12.70
2019-04-28T11:49:07.440Z,12.80
2019-04-28T11:51:11.226Z,13.30
2019-04-28T11:53:14.896Z,12.50
2019-04-28T11:55:18.660Z,13.00
2019-04-28T11:57:22.477Z,13.40
2019-04-28T11:59:26.168Z,13.60
2019-04-28T12:01:29.917Z,13.30
2019-04-28T12:03:33.567Z,13.70
2019-04-28T12:05:42.239Z,13.70
2019-04-28T12:07:46.168Z,14.20
2019-04-28T12:10:03.797Z,14.50
2019-04-28T12:11:58.751Z,14.80
2019-04-28T12:14:03.970Z,13.90
2019-04-28T12:16:25.641Z,14.10
2019-04-28T12:18:36.979Z,13.80
2019-04-28T12:20:41.680Z,13.50
2019-04-28T12:22:45.338Z,13.80
2019-04-28T12:24:49.104Z,14.40
2019-04-28T12:26:52.924Z,14.90
2019-04-28T12:28:56.594Z,14.60
2019-04-28T12:31:00.396Z,15.00
2019-04-28T12:33:04.071Z,14.50
2019-04-28T12:35:07.950Z,14.80
2019-04-28T12:37:11.766Z,14.60
2019-04-28T12:39:15.438Z,15.00
2019-04-28T12:41:19.395Z,15.10
2019-04-28T12:43:23.196Z,15.00
2019-04-28T12:45:34.925Z,15.40
2019-04-28T12:47:32.354Z,15.50
2019-04-28T12:49:52.543Z,15.40
2019-04-28T12:51:56.321Z,13.80
2019-04-28T12:54:01.617Z,13.90
2019-04-28T12:56:05.351Z,13.50
2019-04-28T12:58:09.050Z,13.30
2019-04-28T13:00:32.254Z,14.00
2019-04-28T13:02:37.526Z,14.60
2019-04-28T13:04:45.577Z,15.30
2019-04-28T13:07:08.461Z,15.50
2019-04-28T13:09:12.168Z,15.50
2019-04-28T13:11:15.825Z,15.90
2019-04-28T13:13:19.536Z,16.30
2019-04-28T13:15:23.199Z,16.10
2019-04-28T13:17:26.894Z,16.30
2019-04-28T13:19:30.815Z,16.70
2019-04-28T13:21:34.491Z,16.70
2019-04-28T13:23:38.198Z,16.50
2019-04-28T13:25:41.944Z,15.60
2019-04-28T13:27:45.779Z,15.80
2019-04-28T13:29:49.462Z,16.00
2019-04-28T13:31:53.123Z,15.40
2019-04-28T13:33:58.634Z,14.70
2019-04-28T13:36:14.096Z,13.70
2019-04-28T13:38:07.906Z,14.20
2019-04-28T13:40:15.958Z,13.70
2019-04-28T13:42:19.663Z,13.50
2019-04-28T13:44:40.738Z,12.50
2019-04-28T13:46:44.395Z,13.20
2019-04-28T13:48:48.169Z,13.80
2019-04-28T13:50:51.894Z,13.70
2019-04-28T13:52:55.567Z,13.20
2019-04-28T13:55:03.844Z,13.10
2019-04-28T13:57:07.527Z,13.10
2019-04-28T13:59:12.909Z,13.60
2019-04-28T14:01:24.094Z,13.80
2019-04-28T14:03:35.130Z,13.80
2019-04-28T14:05:46.057Z,14.10
2019-04-28T14:07:49.755Z,13.90
2019-04-28T14:09:53.436Z,13.70
2019-04-28T14:11:57.106Z,13.10
2019-04-28T14:14:00.815Z,12.90
2019-04-28T14:16:04.928Z,13.40
2019-04-28T14:18:08.595Z,13.30
2019-04-28T14:20:12.658Z,13.30
2019-04-28T14:22:17.912Z,13.30
2019-04-28T14:24:21.634Z,13.40
2019-04-28T14:26:25.300Z,13.00
2019-04-28T14:28:30.854Z,13.50
2019-04-28T14:30:40.015Z,13.40
2019-04-28T14:32:47.530Z,13.70
2019-04-28T14:34:52.482Z,14.10
2019-04-28T14:36:57.331Z,14.10
2019-04-28T14:39:19.278Z,14.10
2019-04-28T14:41:23.034Z,14.30
2019-04-28T14:43:26.810Z,14.50
2019-04-28T14:45:30.543Z,14.30
2019-04-28T14:47:34.261Z,14.30
2019-04-28T14:49:38.140Z,14.80
2019-04-28T14:51:41.940Z,14.80
2019-04-28T14:53:46.049Z,14.40
2019-04-28T14:55:49.859Z,14.40
2019-04-28T14:57:53.570Z,14.40
2019-04-28T14:59:58.230Z,14.40
2019-04-28T15:02:18.324Z,14.50
2019-04-28T15:04:23.574Z,14.60
2019-04-28T15:06:28.885Z,14.00
2019-04-28T15:08:36.821Z,13.80
2019-04-28T15:10:58.232Z,14.10
2019-04-28T15:13:02.607Z,14.40
2019-04-28T15:15:09.349Z,14.40
2019-04-28T15:17:13.050Z,14.60
2019-04-28T15:19:16.708Z,14.60
2019-04-28T15:21:20.389Z,14.00
2019-04-28T15:23:24.068Z,14.00
2019-04-28T15:25:27.722Z,14.10
2019-04-28T15:27:32.033Z,14.40
2019-04-28T15:29:35.851Z,14.80
2019-04-28T15:31:39.647Z,15.10
2019-04-28T15:33:43.299Z,14.70
2019-04-28T15:35:46.999Z,14.60
2019-04-28T15:37:50.902Z,14.60
2019-04-28T15:39:54.566Z,14.60
2019-04-28T15:41:58.283Z,14.60
2019-04-28T15:44:01.951Z,14.70
2019-04-28T15:46:05.664Z,14.90
2019-04-28T15:48:09.351Z,14.50
2019-04-28T15:50:13.122Z,14.80
2019-04-28T15:52:17.016Z,15.30
2019-04-28T15:54:20.702Z,15.50
2019-04-28T15:56:28.699Z,15.40
2019-04-28T15:58:33.182Z,15.50
2019-04-28T16:00:36.871Z,15.50
2019-04-28T16:02:40.540Z,15.10
2019-04-28T16:04:44.381Z,15.30
2019-04-28T16:06:48.038Z,15.10
2019-04-28T16:08:51.745Z,15.20
2019-04-28T16:10:55.474Z,15.60
2019-04-28T16:12:59.219Z,15.70
2019-04-28T16:15:02.886Z,15.90
2019-04-28T16:17:06.539Z,15.80
2019-04-28T16:19:10.249Z,16.00
2019-04-28T16:21:13.890Z,16.00
2019-04-28T16:23:19.437Z,16.00
2019-04-28T16:25:23.138Z,15.60
2019-04-28T16:27:26.800Z,15.80
2019-04-28T16:29:30.600Z,15.70
2019-04-28T16:31:34.292Z,15.90
2019-04-28T16:33:37.989Z,16.00
2019-04-28T16:35:42.586Z,15.90
2019-04-28T16:37:46.315Z,16.10
2019-04-28T16:39:50.006Z,16.00
2019-04-28T16:41:56.769Z,15.40
2019-04-28T16:44:00.685Z,15.40
2019-04-28T16:46:04.358Z,16.00
2019-04-28T16:48:08.286Z,16.10
2019-04-28T16:50:12.119Z,16.10
2019-04-28T16:52:16.039Z,16.30
2019-04-28T16:54:19.715Z,16.50
2019-04-28T16:56:41.363Z,16.20
2019-04-28T16:58:46.637Z,16.10
2019-04-28T17:00:57.724Z,15.90
2019-04-28T17:03:01.528Z,15.60
2019-04-28T17:05:06.318Z,15.70
2019-04-28T17:07:10.035Z,15.70
2019-04-28T17:09:14.197Z,15.90
2019-04-28T17:11:17.952Z,16.10
2019-04-28T17:13:21.614Z,16.20
2019-04-28T17:15:25.454Z,16.20
2019-04-28T17:17:29.146Z,16.20
2019-04-28T17:19:32.867Z,15.90
2019-04-28T17:21:36.704Z,15.60
2019-04-28T17:23:40.372Z,15.70
2019-04-28T17:25:44.173Z,15.70
2019-04-28T17:27:47.868Z,15.80
2019-04-28T17:29:51.569Z,15.70
2019-04-28T17:31:58.205Z,15.40
2019-04-28T17:34:02.251Z,15.30
2019-04-28T17:36:05.952Z,15.30
2019-04-28T17:38:09.705Z,14.70
2019-04-28T17:40:16.381Z,14.30
2019-04-28T17:42:20.702Z,14.30
2019-04-28T17:44:24.378Z,14.50
2019-04-28T17:46:28.270Z,14.70
2019-04-28T17:48:33.896Z,14.70
2019-04-28T17:50:37.599Z,14.90
2019-04-28T17:52:41.270Z,15.00
2019-04-28T17:54:44.995Z,14.20
2019-04-28T17:56:48.742Z,13.90
2019-04-28T17:58:53.266Z,14.30
2019-04-28T18:00:58.526Z,13.70
2019-04-28T18:03:06.548Z,14.00
2019-04-28T18:05:24.202Z,14.10
2019-04-28T18:07:29.566Z,14.30
2019-04-28T18:09:33.237Z,14.40
2019-04-28T18:11:37.142Z,14.70
2019-04-28T18:13:40.808Z,14.60
2019-04-28T18:15:48.803Z,14.50
2019-04-28T18:18:05.935Z,14.60
2019-04-28T18:20:11.283Z,14.70
2019-04-28T18:22:14.985Z,14.70
2019-04-28T18:24:18.653Z,14.50
2019-04-28T18:26:22.320Z,14.40
2019-04-28T18:28:26.058Z,14.60
2019-04-28T18:30:31.302Z,14.70
2019-04-28T18:32:54.860Z,14.70
2019-04-28T18:35:06.170Z,14.70
2019-04-28T18:37:11.483Z,14.70
2019-04-28T18:39:32.781Z,14.60
2019-04-28T18:41:47.045Z,14.40
2019-04-28T18:44:04.395Z,14.30
2019-04-28T18:46:08.063Z,14.00
2019-04-28T18:48:11.758Z,13.90
2019-04-28T18:50:15.427Z,14.20
2019-04-28T18:52:19.143Z,14.40
2019-04-28T18:54:22.801Z,14.30
2019-04-28T18:56:26.608Z,14.30
2019-04-28T18:58:30.294Z,14.30
2019-04-28T19:00:35.545Z,14.30
2019-04-28T19:02:43.592Z,14.30
2019-04-28T19:04:47.258Z,14.30
2019-04-28T19:07:04.160Z,14.20
2019-04-28T19:08:57.978Z,14.10
2019-04-28T19:11:15.266Z,13.90
2019-04-28T19:13:20.540Z,13.80
2019-04-28T19:15:28.461Z,13.70
2019-04-28T19:17:36.538Z,13.60
2019-04-28T19:19:41.955Z,13.40
2019-04-28T19:21:55.243Z,13.20
2019-04-28T19:23:58.919Z,13.30
2019-04-28T19:26:02.667Z,13.40
2019-04-28T19:28:06.420Z,13.50
2019-04-28T19:30:10.343Z,13.40
2019-04-28T19:32:14.087Z,13.50
2019-04-28T19:34:17.789Z,13.50
2019-04-28T19:36:21.451Z,13.60
2019-04-28T19:38:25.152Z,13.60
2019-04-28T19:40:28.844Z,13.70
2019-04-28T19:42:32.499Z,13.60
2019-04-28T19:44:36.178Z,13.60
2019-04-28T19:46:39.847Z,13.60
2019-04-28T19:48:43.548Z,13.60
2019-04-28T19:50:47.242Z,13.60
2019-04-28T19:52:50.918Z,13.70
2019-04-28T19:55:12.526Z,13.00
2019-04-28T19:57:17.761Z,13.50
2019-04-28T19:59:23.014Z,13.20
2019-04-28T20:01:31.059Z,13.00
2019-04-28T20:03:34.730Z,12.90
2019-04-28T20:05:38.410Z,13.10
2019-04-28T20:07:42.337Z,13.10
2019-04-28T20:09:46.140Z,12.90
2019-04-28T20:11:49.824Z,13.00
2019-04-28T20:13:53.608Z,12.90
2019-04-28T20:15:57.359Z,12.70
2019-04-28T20:18:01.014Z,12.40
2019-04-28T20:20:05.733Z,12.60
2019-04-28T20:22:09.386Z,12.90
2019-04-28T20:24:13.071Z,13.00
2019-04-28T20:26:19.037Z,13.10
2019-04-28T20:28:22.219Z,13.30
2019-04-28T20:30:25.901Z,13.30
2019-04-28T20:32:31.170Z,13.40
2019-04-28T20:34:34.913Z,13.50
2019-04-28T20:36:46.155Z,13.40
2019-04-28T20:38:51.450Z,13.30
2019-04-28T20:41:08.374Z,12.90
2019-04-28T20:43:16.321Z,12.80
2019-04-28T20:45:19.991Z,12.90
2019-04-28T20:47:23.673Z,13.00
2019-04-28T20:49:27.357Z,13.00
2019-04-28T20:51:31.071Z,13.10
2019-04-28T20:53:34.730Z,13.30
2019-04-28T20:55:38.397Z,13.40
2019-04-28T20:57:42.583Z,13.50
2019-04-28T20:59:46.248Z,13.50
2019-04-28T21:01:49.946Z,13.50
2019-04-28T21:03:53.610Z,13.50
2019-04-28T21:05:59.962Z,13.50
2019-04-28T21:08:03.663Z,13.50
2019-04-28T21:10:07.451Z,13.50
2019-04-28T21:12:11.323Z,13.40
2019-04-28T21:14:15.002Z,13.30
2019-04-28T21:16:18.678Z,13.20
2019-04-28T21:18:22.371Z,13.30
2019-04-28T21:20:26.038Z,13.40
2019-04-28T21:22:29.717Z,13.50
2019-04-28T21:24:33.389Z,13.30
2019-04-28T21:26:37.009Z,13.70
2019-04-28T21:28:40.699Z,13.70
2019-04-28T21:30:44.477Z,13.70
2019-04-28T21:32:48.171Z,13.60
2019-04-28T21:34:51.842Z,13.60
2019-04-28T21:36:55.524Z,13.60
2019-04-28T21:38:59.306Z,13.60
2019-04-28T21:41:02.998Z,13.60
2019-04-28T21:43:24.416Z,13.60
2019-04-28T21:45:46.001Z,13.60
2019-04-28T21:47:49.702Z,13.50
2019-04-28T21:49:54.563Z,13.40
2019-04-28T21:51:58.223Z,13.30
2019-04-28T21:54:01.922Z,13.10
2019-04-28T21:56:05.587Z,13.10
2019-04-28T21:58:09.263Z,13.20
2019-04-28T22:00:14.977Z,13.30
2019-04-28T22:02:18.719Z,13.30
2019-04-28T22:04:22.395Z,13.20
2019-04-28T22:06:26.059Z,13.20
2019-04-28T22:08:29.716Z,13.10
2019-04-28T22:10:33.438Z,13.20
2019-04-28T22:12:37.295Z,13.20
2019-04-28T22:14:40.982Z,13.10
2019-04-28T22:16:44.633Z,12.90
2019-04-28T22:18:48.329Z,13.00
2019-04-28T22:20:52.127Z,13.10
2019-04-28T22:22:57.363Z,13.20
2019-04-28T22:25:05.511Z,12.90
2019-04-28T22:27:11.244Z,12.90
2019-04-28T22:29:14.997Z,13.10
2019-04-28T22:31:18.650Z,13.00
2019-04-28T22:33:22.305Z,13.00
2019-04-28T22:35:25.977Z,13.00
2019-04-28T22:37:29.775Z,13.10
2019-04-28T22:39:33.449Z,13.10
2019-04-28T22:41:37.132Z,12.90
2019-04-28T22:43:40.842Z,13.00
2019-04-28T22:45:44.540Z,13.00
2019-04-28T22:47:48.244Z,12.90
2019-04-28T22:49:51.942Z,12.90
2019-04-28T22:51:55.603Z,12.90
2019-04-28T22:54:00.937Z,12.80
2019-04-28T22:56:06.178Z,12.60
2019-04-28T22:58:16.896Z,12.10
2019-04-28T23:00:23.872Z,12.20
2019-04-28T23:02:29.327Z,12.30
2019-04-28T23:04:34.554Z,12.10
2019-04-28T23:06:38.250Z,12.10
2019-04-28T23:08:44.242Z,12.00
2019-04-28T23:10:47.951Z,12.00
2019-04-28T23:12:51.610Z,11.90
2019-04-28T23:14:55.270Z,12.00
2019-04-28T23:16:59.087Z,11.70
2019-04-28T23:19:04.367Z,11.70
2019-04-28T23:21:12.788Z,11.30
2019-04-28T23:23:16.445Z,10.80
2019-04-28T23:25:20.186Z,10.50
2019-04-28T23:27:23.869Z,10.50
2019-04-28T23:29:30.472Z,10.60
2019-04-28T23:31:33.158Z,11.00
2019-04-28T23:33:36.820Z,11.10
2019-04-28T23:35:40.546Z,11.20
2019-04-28T23:37:44.322Z,11.20
2019-04-28T23:39:48.025Z,11.00
2019-04-28T23:42:02.045Z,10.90
2019-04-28T23:44:05.699Z,11.00
2019-04-28T23:46:09.355Z,11.10
2019-04-28T23:48:13.048Z,11.20
2019-04-28T23:50:18.301Z,11.40
2019-04-28T23:52:23.609Z,11.60
2019-04-28T23:54:27.268Z,11.60
2019-04-28T23:56:31.082Z,11.50
2019-04-28T23:58:34.775Z,11.20
